sensor_id;sensor_type;location;lat;lon;timestamp;P1;durP1;ratioP1;P2;durP2;ratioP2
5813;SDS011;2933;52.302;8.134;2023-01-31T00:02:55;16.33;;;2.67;;
5813;SDS011;2933;52.302;8.134;2023-01-31T00:07:57;15.47;;;2.47;;
5813;SDS011;2933;52.302;8.134;2023-01-31T00:13:01;6.83;;;1.50;;
5813;SDS011;2933;52.302;8.134;2023-01-31T00:18:02;17.27;;;1.83;;
5813;SDS011;2933;52.302;8.134;2023-01-31T00:23:04;8.93;;;2.10;;
5813;SDS011;2933;52.302;8.134;2023-01-31T00:28:07;9.33;;;2.07;;
5813;SDS011;2933;52.302;8.134;2023-01-31T00:33:08;17.50;;;2.70;;
5813;SDS011;2933;52.302;8.134;2023-01-31T00:38:10;11.23;;;2.30;;
5813;SDS011;2933;52.302;8.134;2023-01-31T00:43:13;13.93;;;2.70;;
5813;SDS011;2933;52.302;8.134;2023-01-31T00:48:14;21.90;;;2.63;;
5813;SDS011;2933;52.302;8.134;2023-01-31T00:53:16;23.70;;;2.87;;
5813;SDS011;2933;52.302;8.134;2023-01-31T00:58:23;10.77;;;2.23;;
5813;SDS011;2933;52.302;8.134;2023-01-31T01:03:25;16.23;;;2.90;;
5813;SDS011;2933;52.302;8.134;2023-01-31T01:08:27;34.27;;;2.47;;
5813;SDS011;2933;52.302;8.134;2023-01-31T01:13:30;19.57;;;2.97;;
5813;SDS011;2933;52.302;8.134;2023-01-31T01:18:32;12.23;;;2.13;;
5813;SDS011;2933;52.302;8.134;2023-01-31T01:23:34;21.43;;;2.53;;
5813;SDS011;2933;52.302;8.134;2023-01-31T01:28:37;16.47;;;2.40;;
5813;SDS011;2933;52.302;8.134;2023-01-31T01:33:38;8.90;;;1.90;;
5813;SDS011;2933;52.302;8.134;2023-01-31T01:38:40;43.43;;;2.60;;
5813;SDS011;2933;52.302;8.134;2023-01-31T01:43:44;26.60;;;2.77;;
5813;SDS011;2933;52.302;8.134;2023-01-31T01:48:47;19.07;;;2.70;;
5813;SDS011;2933;52.302;8.134;2023-01-31T01:53:53;15.80;;;2.20;;
5813;SDS011;2933;52.302;8.134;2023-01-31T01:59:00;9.20;;;1.73;;
5813;SDS011;2933;52.302;8.134;2023-01-31T02:04:06;17.00;;;2.90;;
5813;SDS011;2933;52.302;8.134;2023-01-31T02:09:13;16.63;;;1.93;;
5813;SDS011;2933;52.302;8.134;2023-01-31T02:14:22;7.60;;;1.40;;
5813;SDS011;2933;52.302;8.134;2023-01-31T02:19:27;11.90;;;2.60;;
5813;SDS011;2933;52.302;8.134;2023-01-31T02:24:42;17.27;;;1.63;;
5813;SDS011;2933;52.302;8.134;2023-01-31T02:35:51;16.47;;;2.33;;
5813;SDS011;2933;52.302;8.134;2023-01-31T02:41:04;8.73;;;2.37;;
5813;SDS011;2933;52.302;8.134;2023-01-31T02:46:16;8.20;;;1.90;;
5813;SDS011;2933;52.302;8.134;2023-01-31T02:51:20;14.93;;;1.77;;
5813;SDS011;2933;52.302;8.134;2023-01-31T02:56:26;18.03;;;2.40;;
5813;SDS011;2933;52.302;8.134;2023-01-31T03:01:32;11.70;;;1.83;;
5813;SDS011;2933;52.302;8.134;2023-01-31T03:12:12;10.37;;;1.70;;
5813;SDS011;2933;52.302;8.134;2023-01-31T03:17:23;11.43;;;2.30;;
5813;SDS011;2933;52.302;8.134;2023-01-31T03:22:38;11.00;;;1.80;;
5813;SDS011;2933;52.302;8.134;2023-01-31T03:27:43;16.37;;;2.03;;
5813;SDS011;2933;52.302;8.134;2023-01-31T03:32:49;15.87;;;2.33;;
5813;SDS011;2933;52.302;8.134;2023-01-31T03:37:56;13.00;;;2.30;;
5813;SDS011;2933;52.302;8.134;2023-01-31T03:43:06;11.17;;;2.27;;
5813;SDS011;2933;52.302;8.134;2023-01-31T03:48:16;15.73;;;2.73;;
5813;SDS011;2933;52.302;8.134;2023-01-31T03:53:24;15.23;;;2.67;;
5813;SDS011;2933;52.302;8.134;2023-01-31T03:58:30;16.03;;;2.93;;
5813;SDS011;2933;52.302;8.134;2023-01-31T04:03:37;8.53;;;2.17;;
5813;SDS011;2933;52.302;8.134;2023-01-31T04:08:43;8.63;;;2.53;;
5813;SDS011;2933;52.302;8.134;2023-01-31T04:13:45;9.30;;;2.17;;
5813;SDS011;2933;52.302;8.134;2023-01-31T04:18:46;11.80;;;2.80;;
5813;SDS011;2933;52.302;8.134;2023-01-31T04:23:49;21.10;;;2.73;;
5813;SDS011;2933;52.302;8.134;2023-01-31T04:28:51;16.67;;;2.57;;
5813;SDS011;2933;52.302;8.134;2023-01-31T04:33:52;14.00;;;1.80;;
5813;SDS011;2933;52.302;8.134;2023-01-31T04:38:56;8.63;;;2.33;;
5813;SDS011;2933;52.302;8.134;2023-01-31T04:43:59;19.00;;;3.37;;
5813;SDS011;2933;52.302;8.134;2023-01-31T04:49:01;10.43;;;1.93;;
5813;SDS011;2933;52.302;8.134;2023-01-31T04:54:04;6.93;;;2.00;;
5813;SDS011;2933;52.302;8.134;2023-01-31T04:59:06;27.47;;;2.33;;
5813;SDS011;2933;52.302;8.134;2023-01-31T05:04:07;15.43;;;2.10;;
5813;SDS011;2933;52.302;8.134;2023-01-31T05:09:11;16.80;;;2.13;;
5813;SDS011;2933;52.302;8.134;2023-01-31T05:14:12;10.60;;;3.00;;
5813;SDS011;2933;52.302;8.134;2023-01-31T05:19:14;12.60;;;2.53;;
5813;SDS011;2933;52.302;8.134;2023-01-31T05:24:17;10.97;;;2.23;;
5813;SDS011;2933;52.302;8.134;2023-01-31T05:29:19;13.33;;;2.80;;
5813;SDS011;2933;52.302;8.134;2023-01-31T05:34:20;13.10;;;2.87;;
5813;SDS011;2933;52.302;8.134;2023-01-31T05:39:25;17.67;;;2.57;;
5813;SDS011;2933;52.302;8.134;2023-01-31T05:44:27;19.03;;;3.07;;
5813;SDS011;2933;52.302;8.134;2023-01-31T05:49:28;20.03;;;3.43;;
5813;SDS011;2933;52.302;8.134;2023-01-31T05:54:33;12.37;;;3.47;;
5813;SDS011;2933;52.302;8.134;2023-01-31T05:59:35;12.47;;;2.87;;
5813;SDS011;2933;52.302;8.134;2023-01-31T06:04:36;22.83;;;3.23;;
5813;SDS011;2933;52.302;8.134;2023-01-31T06:09:39;14.80;;;2.83;;
5813;SDS011;2933;52.302;8.134;2023-01-31T06:14:41;9.63;;;3.80;;
5813;SDS011;2933;52.302;8.134;2023-01-31T06:19:43;16.97;;;3.63;;
5813;SDS011;2933;52.302;8.134;2023-01-31T06:24:46;13.93;;;3.80;;
5813;SDS011;2933;52.302;8.134;2023-01-31T06:29:47;13.80;;;4.33;;
5813;SDS011;2933;52.302;8.134;2023-01-31T06:34:49;21.27;;;4.20;;
5813;SDS011;2933;52.302;8.134;2023-01-31T06:39:52;23.53;;;3.83;;
5813;SDS011;2933;52.302;8.134;2023-01-31T06:44:53;24.87;;;4.73;;
5813;SDS011;2933;52.302;8.134;2023-01-31T06:49:55;17.37;;;3.57;;
5813;SDS011;2933;52.302;8.134;2023-01-31T06:54:58;16.90;;;4.20;;
5813;SDS011;2933;52.302;8.134;2023-01-31T06:59:59;21.10;;;5.03;;
5813;SDS011;2933;52.302;8.134;2023-01-31T07:05:01;11.20;;;3.83;;
5813;SDS011;2933;52.302;8.134;2023-01-31T07:10:04;18.53;;;3.93;;
5813;SDS011;2933;52.302;8.134;2023-01-31T07:15:06;18.20;;;3.70;;
5813;SDS011;2933;52.302;8.134;2023-01-31T07:20:10;11.10;;;3.67;;
5813;SDS011;2933;52.302;8.134;2023-01-31T07:25:13;21.03;;;4.97;;
5813;SDS011;2933;52.302;8.134;2023-01-31T07:30:15;23.13;;;6.57;;
5813;SDS011;2933;52.302;8.134;2023-01-31T07:35:17;18.53;;;5.57;;
5813;SDS011;2933;52.302;8.134;2023-01-31T07:40:20;28.40;;;6.80;;
5813;SDS011;2933;52.302;8.134;2023-01-31T07:45:21;24.53;;;6.50;;
5813;SDS011;2933;52.302;8.134;2023-01-31T07:50:23;26.60;;;6.97;;
5813;SDS011;2933;52.302;8.134;2023-01-31T07:55:27;21.10;;;6.40;;
5813;SDS011;2933;52.302;8.134;2023-01-31T08:00:28;27.00;;;6.97;;
5813;SDS011;2933;52.302;8.134;2023-01-31T08:05:48;37.33;;;7.87;;
5813;SDS011;2933;52.302;8.134;2023-01-31T08:10:51;30.80;;;7.10;;
5813;SDS011;2933;52.302;8.134;2023-01-31T08:15:52;15.77;;;7.30;;
5813;SDS011;2933;52.302;8.134;2023-01-31T08:20:55;23.90;;;8.00;;
5813;SDS011;2933;52.302;8.134;2023-01-31T08:26:02;18.37;;;8.50;;
5813;SDS011;2933;52.302;8.134;2023-01-31T08:31:05;22.13;;;6.57;;
5813;SDS011;2933;52.302;8.134;2023-01-31T08:36:08;31.23;;;7.43;;
5813;SDS011;2933;52.302;8.134;2023-01-31T08:41:12;21.80;;;7.27;;
5813;SDS011;2933;52.302;8.134;2023-01-31T08:46:14;28.70;;;8.60;;
5813;SDS011;2933;52.302;8.134;2023-01-31T08:51:16;20.40;;;7.97;;
5813;SDS011;2933;52.302;8.134;2023-01-31T08:56:19;24.57;;;8.93;;
5813;SDS011;2933;52.302;8.134;2023-01-31T09:01:24;19.87;;;8.50;;
5813;SDS011;2933;52.302;8.134;2023-01-31T09:06:25;22.33;;;7.83;;
5813;SDS011;2933;52.302;8.134;2023-01-31T09:11:28;20.20;;;8.23;;
5813;SDS011;2933;52.302;8.134;2023-01-31T09:16:31;24.30;;;8.00;;
5813;SDS011;2933;52.302;8.134;2023-01-31T09:21:32;21.73;;;7.53;;
5813;SDS011;2933;52.302;8.134;2023-01-31T09:26:36;23.87;;;8.27;;
5813;SDS011;2933;52.302;8.134;2023-01-31T09:31:37;21.03;;;8.60;;
5813;SDS011;2933;52.302;8.134;2023-01-31T09:36:39;17.07;;;7.10;;
5813;SDS011;2933;52.302;8.134;2023-01-31T09:41:42;24.47;;;8.07;;
5813;SDS011;2933;52.302;8.134;2023-01-31T09:46:49;11.77;;;6.60;;
5813;SDS011;2933;52.302;8.134;2023-01-31T09:51:54;18.73;;;7.20;;
5813;SDS011;2933;52.302;8.134;2023-01-31T09:57:12;20.70;;;7.50;;
5813;SDS011;2933;52.302;8.134;2023-01-31T10:02:30;21.07;;;7.70;;
5813;SDS011;2933;52.302;8.134;2023-01-31T10:07:48;26.53;;;7.33;;
5813;SDS011;2933;52.302;8.134;2023-01-31T10:13:00;18.80;;;7.67;;
5813;SDS011;2933;52.302;8.134;2023-01-31T10:18:07;27.43;;;8.00;;
5813;SDS011;2933;52.302;8.134;2023-01-31T10:23:14;30.30;;;8.80;;
5813;SDS011;2933;52.302;8.134;2023-01-31T10:28:24;23.50;;;8.40;;
5813;SDS011;2933;52.302;8.134;2023-01-31T10:33:34;25.97;;;8.70;;
5813;SDS011;2933;52.302;8.134;2023-01-31T10:38:45;15.53;;;7.70;;
5813;SDS011;2933;52.302;8.134;2023-01-31T10:43:58;19.37;;;7.80;;
5813;SDS011;2933;52.302;8.134;2023-01-31T10:49:03;28.90;;;7.97;;
5813;SDS011;2933;52.302;8.134;2023-01-31T10:54:09;22.43;;;8.90;;
5813;SDS011;2933;52.302;8.134;2023-01-31T10:59:22;34.17;;;8.67;;
5813;SDS011;2933;52.302;8.134;2023-01-31T11:04:27;18.87;;;7.80;;
5813;SDS011;2933;52.302;8.134;2023-01-31T11:09:31;19.33;;;7.97;;
5813;SDS011;2933;52.302;8.134;2023-01-31T11:14:36;17.90;;;7.87;;
5813;SDS011;2933;52.302;8.134;2023-01-31T11:19:39;22.60;;;7.80;;
5813;SDS011;2933;52.302;8.134;2023-01-31T11:24:46;18.53;;;7.53;;
5813;SDS011;2933;52.302;8.134;2023-01-31T11:29:50;24.83;;;8.07;;
5813;SDS011;2933;52.302;8.134;2023-01-31T11:34:54;22.87;;;7.37;;
5813;SDS011;2933;52.302;8.134;2023-01-31T11:39:58;24.43;;;8.10;;
5813;SDS011;2933;52.302;8.134;2023-01-31T11:45:03;30.23;;;7.77;;
5813;SDS011;2933;52.302;8.134;2023-01-31T11:50:20;20.77;;;7.60;;
5813;SDS011;2933;52.302;8.134;2023-01-31T11:55:24;16.47;;;7.23;;
5813;SDS011;2933;52.302;8.134;2023-01-31T12:00:29;37.93;;;8.77;;
5813;SDS011;2933;52.302;8.134;2023-01-31T12:05:37;15.50;;;7.37;;
5813;SDS011;2933;52.302;8.134;2023-01-31T12:10:41;21.30;;;7.87;;
5813;SDS011;2933;52.302;8.134;2023-01-31T12:15:49;15.83;;;7.50;;
5813;SDS011;2933;52.302;8.134;2023-01-31T12:20:57;28.20;;;7.30;;
5813;SDS011;2933;52.302;8.134;2023-01-31T12:26:08;18.47;;;7.80;;
5813;SDS011;2933;52.302;8.134;2023-01-31T12:31:22;19.63;;;7.30;;
5813;SDS011;2933;52.302;8.134;2023-01-31T12:36:40;14.00;;;7.67;;
5813;SDS011;2933;52.302;8.134;2023-01-31T12:41:54;23.23;;;8.47;;
5813;SDS011;2933;52.302;8.134;2023-01-31T12:47:22;15.17;;;9.07;;
5813;SDS011;2933;52.302;8.134;2023-01-31T12:52:40;20.87;;;8.07;;
5813;SDS011;2933;52.302;8.134;2023-01-31T12:57:49;10.37;;;8.00;;
5813;SDS011;2933;52.302;8.134;2023-01-31T13:03:08;24.60;;;8.77;;
5813;SDS011;2933;52.302;8.134;2023-01-31T13:08:21;11.07;;;7.03;;
5813;SDS011;2933;52.302;8.134;2023-01-31T13:13:26;17.07;;;7.93;;
5813;SDS011;2933;52.302;8.134;2023-01-31T13:18:32;17.60;;;7.17;;
5813;SDS011;2933;52.302;8.134;2023-01-31T13:23:37;19.20;;;8.63;;
5813;SDS011;2933;52.302;8.134;2023-01-31T13:28:42;15.33;;;8.67;;
5813;SDS011;2933;52.302;8.134;2023-01-31T13:33:51;12.77;;;7.93;;
5813;SDS011;2933;52.302;8.134;2023-01-31T13:38:59;15.47;;;7.80;;
5813;SDS011;2933;52.302;8.134;2023-01-31T13:44:08;24.90;;;8.80;;
5813;SDS011;2933;52.302;8.134;2023-01-31T13:49:16;17.63;;;7.73;;
5813;SDS011;2933;52.302;8.134;2023-01-31T13:54:24;10.53;;;7.77;;
5813;SDS011;2933;52.302;8.134;2023-01-31T13:59:28;13.13;;;8.23;;
5813;SDS011;2933;52.302;8.134;2023-01-31T14:04:33;19.80;;;9.23;;
5813;SDS011;2933;52.302;8.134;2023-01-31T14:09:37;12.30;;;8.50;;
5813;SDS011;2933;52.302;8.134;2023-01-31T14:14:43;14.93;;;8.00;;
5813;SDS011;2933;52.302;8.134;2023-01-31T14:25:09;17.47;;;8.47;;
5813;SDS011;2933;52.302;8.134;2023-01-31T14:35:47;15.10;;;8.60;;
5813;SDS011;2933;52.302;8.134;2023-01-31T14:40:59;13.47;;;8.40;;
5813;SDS011;2933;52.302;8.134;2023-01-31T14:46:11;11.17;;;8.33;;
5813;SDS011;2933;52.302;8.134;2023-01-31T14:51:32;20.80;;;9.60;;
5813;SDS011;2933;52.302;8.134;2023-01-31T14:56:46;20.53;;;8.40;;
5813;SDS011;2933;52.302;8.134;2023-01-31T15:01:54;21.30;;;9.00;;
5813;SDS011;2933;52.302;8.134;2023-01-31T15:06:58;9.20;;;7.23;;
5813;SDS011;2933;52.302;8.134;2023-01-31T15:11:59;12.50;;;7.40;;
5813;SDS011;2933;52.302;8.134;2023-01-31T15:17:02;9.30;;;6.10;;
5813;SDS011;2933;52.302;8.134;2023-01-31T15:22:17;9.40;;;5.87;;
5813;SDS011;2933;52.302;8.134;2023-01-31T15:27:22;17.90;;;5.80;;
5813;SDS011;2933;52.302;8.134;2023-01-31T15:32:30;11.40;;;5.47;;
5813;SDS011;2933;52.302;8.134;2023-01-31T15:37:40;13.03;;;4.87;;
5813;SDS011;2933;52.302;8.134;2023-01-31T15:42:44;8.40;;;4.80;;
5813;SDS011;2933;52.302;8.134;2023-01-31T15:47:55;13.37;;;4.90;;
5813;SDS011;2933;52.302;8.134;2023-01-31T15:53:02;9.87;;;5.17;;
5813;SDS011;2933;52.302;8.134;2023-01-31T15:58:05;7.37;;;4.80;;
5813;SDS011;2933;52.302;8.134;2023-01-31T16:03:13;11.27;;;4.63;;
5813;SDS011;2933;52.302;8.134;2023-01-31T16:08:24;12.23;;;4.70;;
5813;SDS011;2933;52.302;8.134;2023-01-31T16:13:28;15.53;;;4.60;;
5813;SDS011;2933;52.302;8.134;2023-01-31T16:18:30;12.03;;;3.67;;
5813;SDS011;2933;52.302;8.134;2023-01-31T16:23:36;8.67;;;4.00;;
5813;SDS011;2933;52.302;8.134;2023-01-31T16:28:39;12.93;;;3.50;;
5813;SDS011;2933;52.302;8.134;2023-01-31T16:33:45;17.80;;;4.00;;
5813;SDS011;2933;52.302;8.134;2023-01-31T16:38:54;7.03;;;3.73;;
5813;SDS011;2933;52.302;8.134;2023-01-31T16:43:58;14.80;;;3.20;;
5813;SDS011;2933;52.302;8.134;2023-01-31T16:49:00;9.03;;;3.27;;
5813;SDS011;2933;52.302;8.134;2023-01-31T16:54:15;11.03;;;3.00;;
5813;SDS011;2933;52.302;8.134;2023-01-31T16:59:39;3.27;;;2.37;;
5813;SDS011;2933;52.302;8.134;2023-01-31T17:04:47;15.77;;;3.30;;
5813;SDS011;2933;52.302;8.134;2023-01-31T17:09:56;27.23;;;3.10;;
5813;SDS011;2933;52.302;8.134;2023-01-31T17:14:59;8.47;;;2.50;;
5813;SDS011;2933;52.302;8.134;2023-01-31T17:20:02;7.93;;;2.60;;
5813;SDS011;2933;52.302;8.134;2023-01-31T17:25:09;6.77;;;2.20;;
5813;SDS011;2933;52.302;8.134;2023-01-31T17:30:14;25.13;;;3.40;;
5813;SDS011;2933;52.302;8.134;2023-01-31T17:35:17;8.00;;;1.77;;
5813;SDS011;2933;52.302;8.134;2023-01-31T17:40:22;12.47;;;2.17;;
5813;SDS011;2933;52.302;8.134;2023-01-31T17:45:23;20.20;;;2.63;;
5813;SDS011;2933;52.302;8.134;2023-01-31T17:50:26;7.43;;;1.87;;
5813;SDS011;2933;52.302;8.134;2023-01-31T17:55:30;10.17;;;2.47;;
5813;SDS011;2933;52.302;8.134;2023-01-31T18:00:31;9.47;;;2.20;;
5813;SDS011;2933;52.302;8.134;2023-01-31T18:05:33;20.63;;;2.50;;
5813;SDS011;2933;52.302;8.134;2023-01-31T18:10:36;11.93;;;2.07;;
5813;SDS011;2933;52.302;8.134;2023-01-31T18:15:37;14.77;;;2.07;;
5813;SDS011;2933;52.302;8.134;2023-01-31T18:20:48;14.00;;;2.60;;
5813;SDS011;2933;52.302;8.134;2023-01-31T18:25:51;19.50;;;1.80;;
5813;SDS011;2933;52.302;8.134;2023-01-31T18:30:52;15.10;;;2.00;;
5813;SDS011;2933;52.302;8.134;2023-01-31T18:41:11;11.20;;;2.50;;
5813;SDS011;2933;52.302;8.134;2023-01-31T18:46:14;19.20;;;2.53;;
5813;SDS011;2933;52.302;8.134;2023-01-31T18:51:17;9.07;;;2.40;;
5813;SDS011;2933;52.302;8.134;2023-01-31T18:56:20;11.27;;;2.30;;
5813;SDS011;2933;52.302;8.134;2023-01-31T19:01:23;15.20;;;1.87;;
5813;SDS011;2933;52.302;8.134;2023-01-31T19:06:27;12.70;;;2.10;;
5813;SDS011;2933;52.302;8.134;2023-01-31T19:11:32;12.97;;;2.17;;
5813;SDS011;2933;52.302;8.134;2023-01-31T19:16:34;14.67;;;3.13;;
5813;SDS011;2933;52.302;8.134;2023-01-31T19:21:39;8.63;;;2.17;;
5813;SDS011;2933;52.302;8.134;2023-01-31T19:26:42;9.07;;;2.17;;
5813;SDS011;2933;52.302;8.134;2023-01-31T19:31:52;15.17;;;2.33;;
5813;SDS011;2933;52.302;8.134;2023-01-31T19:36:54;17.27;;;2.83;;
5813;SDS011;2933;52.302;8.134;2023-01-31T19:41:57;14.07;;;2.40;;
5813;SDS011;2933;52.302;8.134;2023-01-31T19:46:58;6.07;;;1.93;;
5813;SDS011;2933;52.302;8.134;2023-01-31T19:52:00;13.43;;;2.00;;
5813;SDS011;2933;52.302;8.134;2023-01-31T19:57:03;12.83;;;2.17;;
5813;SDS011;2933;52.302;8.134;2023-01-31T20:02:04;22.13;;;2.80;;
5813;SDS011;2933;52.302;8.134;2023-01-31T20:07:06;18.50;;;2.70;;
5813;SDS011;2933;52.302;8.134;2023-01-31T20:12:09;16.53;;;2.20;;
5813;SDS011;2933;52.302;8.134;2023-01-31T20:17:11;7.70;;;2.17;;
5813;SDS011;2933;52.302;8.134;2023-01-31T20:22:12;11.20;;;1.83;;
5813;SDS011;2933;52.302;8.134;2023-01-31T20:27:17;21.27;;;2.80;;
5813;SDS011;2933;52.302;8.134;2023-01-31T20:32:19;20.27;;;3.10;;
5813;SDS011;2933;52.302;8.134;2023-01-31T20:37:20;13.07;;;2.17;;
5813;SDS011;2933;52.302;8.134;2023-01-31T20:42:23;12.70;;;2.20;;
5813;SDS011;2933;52.302;8.134;2023-01-31T20:47:26;16.83;;;2.00;;
5813;SDS011;2933;52.302;8.134;2023-01-31T20:52:27;17.60;;;3.00;;
5813;SDS011;2933;52.302;8.134;2023-01-31T20:57:30;16.53;;;2.63;;
5813;SDS011;2933;52.302;8.134;2023-01-31T21:02:31;16.30;;;2.97;;
5813;SDS011;2933;52.302;8.134;2023-01-31T21:07:33;11.60;;;2.30;;
5813;SDS011;2933;52.302;8.134;2023-01-31T21:12:36;23.97;;;3.63;;
5813;SDS011;2933;52.302;8.134;2023-01-31T21:17:37;8.93;;;2.60;;
5813;SDS011;2933;52.302;8.134;2023-01-31T21:22:39;10.23;;;2.23;;
5813;SDS011;2933;52.302;8.134;2023-01-31T21:27:42;25.83;;;2.50;;
5813;SDS011;2933;52.302;8.134;2023-01-31T21:32:50;20.93;;;3.00;;
5813;SDS011;2933;52.302;8.134;2023-01-31T21:37:52;12.00;;;2.67;;
5813;SDS011;2933;52.302;8.134;2023-01-31T21:42:55;13.63;;;2.30;;
5813;SDS011;2933;52.302;8.134;2023-01-31T21:47:57;7.60;;;2.27;;
5813;SDS011;2933;52.302;8.134;2023-01-31T21:53:16;14.40;;;2.63;;
5813;SDS011;2933;52.302;8.134;2023-01-31T21:58:18;14.73;;;3.13;;
5813;SDS011;2933;52.302;8.134;2023-01-31T22:03:20;11.53;;;2.47;;
5813;SDS011;2933;52.302;8.134;2023-01-31T22:08:22;15.03;;;2.50;;
5813;SDS011;2933;52.302;8.134;2023-01-31T22:13:24;18.70;;;3.40;;
5813;SDS011;2933;52.302;8.134;2023-01-31T22:18:26;9.70;;;2.40;;
5813;SDS011;2933;52.302;8.134;2023-01-31T22:23:28;11.47;;;2.20;;
5813;SDS011;2933;52.302;8.134;2023-01-31T22:28:31;16.30;;;2.73;;
5813;SDS011;2933;52.302;8.134;2023-01-31T22:33:34;15.73;;;3.20;;
5813;SDS011;2933;52.302;8.134;2023-01-31T22:38:37;17.07;;;2.80;;
5813;SDS011;2933;52.302;8.134;2023-01-31T22:43:40;11.53;;;2.20;;
5813;SDS011;2933;52.302;8.134;2023-01-31T22:48:43;23.07;;;3.50;;
5813;SDS011;2933;52.302;8.134;2023-01-31T22:53:45;7.20;;;2.53;;
5813;SDS011;2933;52.302;8.134;2023-01-31T22:58:52;11.40;;;2.50;;
5813;SDS011;2933;52.302;8.134;2023-01-31T23:03:56;9.07;;;2.17;;
5813;SDS011;2933;52.302;8.134;2023-01-31T23:08:58;25.00;;;3.00;;
5813;SDS011;2933;52.302;8.134;2023-01-31T23:14:01;24.13;;;2.33;;
5813;SDS011;2933;52.302;8.134;2023-01-31T23:19:03;32.40;;;3.50;;
5813;SDS011;2933;52.302;8.134;2023-01-31T23:24:06;24.00;;;2.60;;
5813;SDS011;2933;52.302;8.134;2023-01-31T23:29:10;17.30;;;2.70;;
5813;SDS011;2933;52.302;8.134;2023-01-31T23:34:11;16.20;;;3.03;;
5813;SDS011;2933;52.302;8.134;2023-01-31T23:39:13;22.43;;;2.70;;
5813;SDS011;2933;52.302;8.134;2023-01-31T23:44:16;17.73;;;3.10;;
5813;SDS011;2933;52.302;8.134;2023-01-31T23:49:17;20.83;;;3.20;;
5813;SDS011;2933;52.302;8.134;2023-01-31T23:54:18;13.37;;;3.30;;
5813;SDS011;2933;52.302;8.134;2023-01-31T23:59:21;8.80;;;2.13;;
